KAC619 OKKK-OTHH
Flight info
| Callsign | KAC619 |
|---|---|
| Flight time | N/A |
| Altitude | 290 |
| Route | OKKK SOBAB TULGO KK009 ALVAX IMADOX HAYYA NORMA DATAL LUBAK BAYAN LOVET KIPIK GOLSI OTHH |
| Aircraft | B77W/M-V/N |
Departure
| Time | 2026-05-05 18:30 |
|---|---|
| Airport | Kuwait International Airport (OKKK) |
Arrival
| Time | N/A |
|---|---|
| Airport | Hamad International Airport (OTHH) |
| Time | Latitude | Longitude | Altitude | Speed | Heading |
|---|---|---|---|---|---|
| 2026-05-05 18:06 | 29.24908 | 47.96081 | 140 ft | 0 kts | 54° |
| 2026-05-05 18:14 | 29.24896 | 47.96061 | 140 ft | 4 kts | 54° |
| 2026-05-05 18:14 | 29.24879 | 47.96035 | 140 ft | 4 kts | 53° |
| 2026-05-05 18:15 | 29.24863 | 47.96010 | 140 ft | 3 kts | 63° |
| 2026-05-05 18:15 | 29.24857 | 47.95983 | 140 ft | 3 kts | 90° |
| 2026-05-05 18:15 | 29.24862 | 47.95965 | 140 ft | 1 kts | 129° |
| 2026-05-05 18:15 | 29.24873 | 47.95957 | 140 ft | 0 kts | 158° |
| 2026-05-05 18:16 | 29.24857 | 47.95965 | 140 ft | 4 kts | 153° |
| 2026-05-05 18:16 | 29.24832 | 47.95981 | 140 ft | 4 kts | 151° |
| 2026-05-05 18:16 | 29.24809 | 47.95995 | 140 ft | 0 kts | 153° |
| 2026-05-05 18:21 | 29.24805 | 47.95996 | 140 ft | 0 kts | 153° |
| 2026-05-05 18:23 | 29.24771 | 47.96016 | 141 ft | 12 kts | 153° |
| 2026-05-05 18:23 | 29.24650 | 47.96081 | 142 ft | 25 kts | 156° |
| 2026-05-05 18:23 | 29.24458 | 47.96182 | 143 ft | 33 kts | 154° |
| 2026-05-05 18:24 | 29.24230 | 47.96303 | 145 ft | 38 kts | 155° |
| 2026-05-05 18:24 | 29.24013 | 47.96417 | 148 ft | 28 kts | 155° |
| 2026-05-05 18:24 | 29.23818 | 47.96520 | 150 ft | 33 kts | 154° |
| 2026-05-05 18:24 | 29.23584 | 47.96647 | 150 ft | 39 kts | 155° |
| 2026-05-05 18:25 | 29.23378 | 47.96755 | 152 ft | 27 kts | 155° |
| 2026-05-05 18:25 | 29.23263 | 47.96815 | 153 ft | 27 kts | 155° |
| 2026-05-05 18:25 | 29.23046 | 47.96936 | 157 ft | 24 kts | 153° |
| 2026-05-05 18:25 | 29.22896 | 47.97013 | 160 ft | 23 kts | 156° |
| 2026-05-05 18:26 | 29.22752 | 47.97087 | 161 ft | 22 kts | 155° |
| 2026-05-05 18:26 | 29.22615 | 47.97160 | 164 ft | 20 kts | 155° |
| 2026-05-05 18:26 | 29.22487 | 47.97230 | 167 ft | 20 kts | 154° |
| 2026-05-05 18:26 | 29.22356 | 47.97300 | 169 ft | 21 kts | 155° |
| 2026-05-05 18:27 | 29.22220 | 47.97372 | 170 ft | 21 kts | 155° |
| 2026-05-05 18:27 | 29.22082 | 47.97445 | 172 ft | 22 kts | 155° |
| 2026-05-05 18:27 | 29.21940 | 47.97522 | 173 ft | 22 kts | 154° |
| 2026-05-05 18:27 | 29.21795 | 47.97599 | 175 ft | 23 kts | 155° |
| 2026-05-05 18:28 | 29.21497 | 47.97756 | 179 ft | 23 kts | 155° |
| 2026-05-05 18:28 | 29.21353 | 47.97832 | 182 ft | 22 kts | 155° |
| 2026-05-05 18:28 | 29.21249 | 47.97792 | 182 ft | 19 kts | 262° |
| 2026-05-05 18:29 | 29.21297 | 47.97644 | 179 ft | 20 kts | 302° |
| 2026-05-05 18:29 | 29.21385 | 47.97569 | 179 ft | 15 kts | 335° |
| 2026-05-05 18:29 | 29.21654 | 47.97427 | 176 ft | 91 kts | 335° |
| 2026-05-05 18:29 | 29.22612 | 47.96926 | 426 ft | 195 kts | 335° |
| 2026-05-05 18:30 | 29.23886 | 47.96269 | 1769 ft | 216 kts | 335° |
| 2026-05-05 18:30 | 29.25171 | 47.95593 | 3230 ft | 210 kts | 335° |
| 2026-05-05 18:30 | 29.26500 | 47.94894 | 4357 ft | 220 kts | 335° |
| 2026-05-05 18:30 | 29.27930 | 47.94140 | 5216 ft | 242 kts | 335° |
| 2026-05-05 18:31 | 29.29503 | 47.93311 | 5524 ft | 249 kts | 335° |
| 2026-05-05 18:31 | 29.31089 | 47.92475 | 5832 ft | 253 kts | 335° |
| 2026-05-05 18:31 | 29.32689 | 47.91632 | 6135 ft | 254 kts | 335° |
| 2026-05-05 18:31 | 29.34381 | 47.91036 | 6426 ft | 255 kts | 355° |
| 2026-05-05 18:32 | 29.36122 | 47.91348 | 6705 ft | 256 kts | 22° |
| 2026-05-05 18:32 | 29.37583 | 47.92580 | 7014 ft | 276 kts | 51° |
| 2026-05-05 18:32 | 29.38597 | 47.94553 | 7342 ft | 296 kts | 64° |
| 2026-05-05 18:32 | 29.39514 | 47.96693 | 7658 ft | 300 kts | 63° |
| 2026-05-05 18:33 | 29.40474 | 47.98835 | 7965 ft | 302 kts | 62° |
| 2026-05-05 18:33 | 29.41462 | 48.00969 | 8268 ft | 303 kts | 62° |
| 2026-05-05 18:33 | 29.42455 | 48.03090 | 8569 ft | 304 kts | 62° |
| 2026-05-05 18:33 | 29.43356 | 48.05281 | 8862 ft | 306 kts | 73° |
| 2026-05-05 18:34 | 29.43552 | 48.07694 | 9149 ft | 307 kts | 96° |
| 2026-05-05 18:34 | 29.43063 | 48.10080 | 9452 ft | 309 kts | 107° |
| 2026-05-05 18:34 | 29.42401 | 48.12408 | 9752 ft | 310 kts | 108° |
| 2026-05-05 18:34 | 29.41710 | 48.14759 | 10052 ft | 311 kts | 108° |
| 2026-05-05 18:35 | 29.41021 | 48.17114 | 10152 ft | 313 kts | 108° |
| 2026-05-05 18:35 | 29.40336 | 48.19466 | 10159 ft | 312 kts | 108° |
| 2026-05-05 18:35 | 29.39646 | 48.21839 | 10159 ft | 312 kts | 108° |
| 2026-05-05 18:35 | 29.38962 | 48.24192 | 10232 ft | 310 kts | 108° |
| 2026-05-05 18:36 | 29.38277 | 48.26541 | 10559 ft | 313 kts | 108° |
| 2026-05-05 18:36 | 29.37587 | 48.28908 | 10909 ft | 315 kts | 108° |
| 2026-05-05 18:36 | 29.36884 | 48.31315 | 11265 ft | 317 kts | 108° |
| 2026-05-05 18:36 | 29.36184 | 48.33714 | 11617 ft | 318 kts | 108° |
| 2026-05-05 18:37 | 29.35484 | 48.36109 | 11967 ft | 320 kts | 108° |
| 2026-05-05 18:37 | 29.34776 | 48.38528 | 12318 ft | 322 kts | 109° |